logo
Search for airport 
image banner adimage banner adimage banner ad
image banner ad

FAUMTS - Umtshezi Municipality

Located in , South Africa

ICAO - , IATA -

Data provided by Airmate  

General information

Coordinates: S29°2'50" E29°54'38"
Elevation is 4261 feet MSL.
 
View others Airports in Kwazulu-Natal

Operational data

Special qualification required
Current time UTC:
Current local time:
Weather at : - ( 0 km )
METAR: CYPO 240722Z AUTO 35007KT 2 1/2SM -SN OVC010 M02/M03 A3004 RMK VIS VRB 1 1/2-3 SLP178
View NOTAMs / SUP AIP / TFR affecting this airport [VIEW]
Communications frequencies: [VIEW]

Runways:

RWY identifierQFULength (ft)Width (ft)SurfaceLDA (ft)
01156°402682SAND
19336°402682SAND
14119°299998SAND
32299°299998SAND

Airport contact information

Address: South Africa

Satellite view of FAUMTS